Latest Coastal Weather Observations for Lihou Reef Lighthouse

IDQ60701

Issued at 4:31 pm EST Sunday 2 August 2015 (issued every 10 minutes, with the page automatically refreshed every 10 minutes)

About coastal observations | Map of coastal stations | Coastal observations for QLD | Marine services | Other Formats
Station Details ID: 200880 Name: LIHOU REEF LIGHTHOUSE Lat: -17.13 Lon: 152.15 Height: 0.0 m
Data from the previous 72 hours. | See also: Recent months at Lihou Reef Lighthouse
Date/Time
EST
Temp

°C
Wind Pressure Rain
since 9am
mm
Weather Cloud Vis
km
Sea
Height
m
Swell
Dir
 
Speed
knots
Gust
knots
hPa Trend Height
m
Period
s
Dir
02/04:30pm 24.4 SE 15 18 1016.0 - - - - - - - - -
02/04:00pm 24.5 ESE 12 16 1016.0 - - - - - - - - -
02/03:30pm 24.5 ESE 13 20 1016.0 - - - - - - - - -
02/03:00pm 24.6 ESE 11 13 1016.1 - - - - - - - - -
02/02:30pm 24.9 ESE 13 15 1016.2 - - - - - - - - -
02/02:00pm 24.7 ESE 13 15 1016.4 - - - - - - - - -
02/01:30pm 24.5 ESE 13 16 1016.7 - - - - - - - - -
02/01:00pm 24.7 ESE 15 17 1017.0 - - - - - - - - -
02/12:30pm 24.7 ESE 15 18 1017.3 - - - - - - - - -
02/12:00pm 24.1 E 9 16 1017.9 - - - - - - - - -
02/11:30am 23.1 NE 8 10 1018.5 - - - - - - - - -
02/11:00am 23.8 ESE 17 22 1018.5 - - - - - - - - -
02/10:30am 24.7 ESE 15 21 1018.5 - - - - - - - - -
02/10:00am 24.5 ESE 17 22 1018.7 - - - - - - - - -
02/09:30am 24.8 ESE 16 19 1018.9 - - - - - - - - -
02/09:00am 24.6 ESE 15 17 1018.8 - - - - - - - - -
02/08:30am 24.4 ESE 15 17 1018.8 - - - - - - - - -
02/08:00am 24.5 E 17 20 1018.6 - - - - - - - - -
02/07:30am 24.1 ESE 18 23 1018.2 - - - - - - - - -
02/07:00am 24.1 ESE 17 21 1018.2 - - - - - - - - -
02/06:30am 23.9 ESE 18 22 1018.0 - - - - - - - - -
02/06:00am 23.9 ESE 20 25 1017.6 - - - - - - - - -
02/05:30am 24.0 ESE 19 23 1017.5 - - - - - - - - -
02/05:00am 23.9 ESE 19 23 1017.1 - - - - - - - - -
02/04:30am 23.9 ESE 20 22 1016.9 - - - - - - - - -
02/04:00am 23.7 ESE 20 23 1016.8 - - - - - - - - -
02/03:30am 23.6 SE 22 26 1016.8 - - - - - - - - -
02/03:00am 23.5 ESE 20 29 1016.8 - - - - - - - - -
02/02:30am 23.8 ESE 18 23 1016.9 - - - - - - - - -
02/02:00am 23.8 ESE 23 26 1016.7 - - - - - - - - -
02/01:30am 23.4 SE 17 21 1017.1 - - - - - - - - -
02/01:26am 23.4 SE 19 30 1017.1 - - - - - - - - -
02/01:00am 23.9 ESE 20 25 1017.2 - - - - - - - - -
02/12:30am 23.8 SE 19 22 1017.6 - - - - - - - - -
02/12:00am 23.6 SE 19 24 1017.9 - - - - - - - - -
 
Date/Time
EST
Temp

°C
Wind Pressure Rain
since 9am
mm
Weather Cloud Vis
km
Sea
Height
m
Swell
Dir
 
Speed
knots
Gust
knots
hPa Trend Height
m
Period
s
Dir
01/11:30pm 23.9 SE 21 26 1017.8 - - - - - - - - -
01/11:00pm 23.9 SE 21 25 1017.8 - - - - - - - - -
01/10:30pm 23.8 ESE 19 24 1018.1 - - - - - - - - -
01/10:00pm 23.9 ESE 18 23 1017.9 - - - - - - - - -
01/09:30pm 23.9 ESE 19 23 1017.9 - - - - - - - - -
01/09:00pm 23.8 SE 19 23 1017.8 - - - - - - - - -
01/08:30pm 23.8 SE 18 22 1017.7 - - - - - - - - -
01/08:00pm 23.7 SE 18 24 1017.3 - - - - - - - - -
01/07:30pm 23.7 SE 19 23 1017.1 - - - - - - - - -
01/07:00pm 23.7 SE 19 23 1016.6 - - - - - - - - -
01/06:30pm 23.7 SE 19 23 1016.3 - - - - - - - - -
01/06:00pm 23.7 SE 18 22 1016.0 - - - - - - - - -
01/05:30pm 23.8 SE 19 23 1015.8 - - - - - - - - -
01/05:00pm 23.9 SE 20 23 1015.7 - - - - - - - - -
01/04:30pm 23.8 SE 19 23 1015.4 - - - - - - - - -
01/04:00pm 23.8 SE 19 23 1015.4 - - - - - - - - -
01/03:30pm 23.9 SE 19 23 1015.2 - - - - - - - - -
01/03:00pm 24.0 SE 19 23 1015.3 - - - - - - - - -
01/02:30pm 23.9 SE 20 24 1015.5 - - - - - - - - -
01/02:00pm 23.9 SE 18 23 1015.9 - - - - - - - - -
01/01:30pm 24.1 SE 19 23 1016.3 - - - - - - - - -
01/01:00pm 24.1 ESE 18 21 1016.7 - - - - - - - - -
01/12:30pm 24.2 SE 18 21 1017.3 - - - - - - - - -
01/12:00pm 24.1 ESE 18 22 1017.4 - - - - - - - - -
01/11:30am 24.1 ESE 18 23 1017.7 - - - - - - - - -
01/11:00am 24.1 ESE 17 20 1018.3 - - - - - - - - -
01/10:30am 23.9 ESE 18 22 1018.8 - - - - - - - - -
01/10:00am 24.3 ESE 15 19 1019.1 - - - - - - - - -
01/09:30am 24.0 SE 19 25 1019.1 - - - - - - - - -
01/09:00am 23.7 SE 18 24 1019.0 - - - - - - - - -
01/08:30am 23.7 SE 17 20 1018.8 - - - - - - - - -
01/08:00am 23.8 ESE 16 20 1018.6 - - - - - - - - -
01/07:30am 23.6 ESE 13 16 1018.5 - - - - - - - - -
01/07:00am 23.5 ESE 19 23 1018.1 - - - - - - - - -
01/06:30am 23.5 ESE 19 23 1017.8 - - - - - - - - -
01/06:00am 23.3 ESE 18 23 1017.6 - - - - - - - - -
01/05:30am 23.3 ESE 19 25 1017.5 - - - - - - - - -
01/05:00am 23.1 ESE 16 21 1017.3 - - - - - - - - -
01/04:30am 23.2 SE 21 26 1016.7 - - - - - - - - -
01/04:00am 23.4 ESE 21 27 1016.6 - - - - - - - - -
01/03:30am 23.5 ESE 19 23 1016.7 - - - - - - - - -
01/03:00am 23.5 ESE 21 28 1016.5 - - - - - - - - -
01/02:30am 23.5 ESE 20 26 1016.6 - - - - - - - - -
01/02:00am 23.7 ESE 21 25 1016.7 - - - - - - - - -
01/01:30am 23.4 ESE 15 20 1017.2 - - - - - - - - -
01/01:00am 23.1 ESE 16 19 1017.5 - - - - - - - - -
01/12:30am 22.9 ESE 18 22 1017.9 - - - - - - - - -
01/12:00am 23.1 SE 21 27 1017.9 - - - - - - - - -
 
Date/Time
EST
Temp

°C
Wind Pressure Rain
since 9am
mm
Weather Cloud Vis
km
Sea
Height
m
Swell
Dir
 
Speed
knots
Gust
knots
hPa Trend Height
m
Period
s
Dir
31/11:30pm 23.2 SE 20 25 1017.9 - - - - - - - - -
31/11:00pm 23.3 SE 22 26 1017.8 - - - - - - - - -
31/10:30pm 23.3 SE 23 27 1017.8 - - - - - - - - -
31/10:00pm 23.3 SE 23 28 1018.0 - - - - - - - - -
31/09:30pm 23.2 SE 22 26 1018.0 - - - - - - - - -
31/09:00pm 23.4 ESE 22 27 1017.9 - - - - - - - - -
31/08:30pm 23.3 SE 21 25 1017.9 - - - - - - - - -
31/08:00pm 23.4 SE 21 26 1017.5 - - - - - - - - -
31/07:30pm 23.4 SE 22 26 1017.3 - - - - - - - - -
31/07:00pm 23.3 SE 23 27 1016.9 - - - - - - - - -
31/06:30pm 23.5 SE 22 26 1016.7 - - - - - - - - -
31/06:00pm 23.2 SE 20 23 1016.6 - - - - - - - - -
31/05:30pm 23.3 SE 20 25 1016.4 - - - - - - - - -
31/05:00pm 23.3 SE 21 26 1016.0 - - - - - - - - -
31/04:30pm 23.4 SE 20 24 1015.8 - - - - - - - - -
31/04:00pm 23.3 SE 20 24 1015.5 - - - - - - - - -
31/03:30pm 23.4 SE 19 23 1015.4 - - - - - - - - -
31/03:00pm 23.3 SE 20 23 1015.3 - - - - - - - - -
31/02:30pm 23.3 SE 20 24 1015.6 - - - - - - - - -
31/02:00pm 23.4 SE 20 24 1015.8 - - - - - - - - -
31/01:30pm 23.5 SE 20 24 1015.8 - - - - - - - - -
31/01:00pm 23.3 SE 22 26 1016.1 - - - - - - - - -
31/12:30pm 23.3 SE 22 25 1016.3 - - - - - - - - -
31/12:00pm 23.3 SE 22 26 1016.7 - - - - - - - - -
31/11:30am 23.3 SE 22 26 1017.4 - - - - - - - - -
31/11:00am 23.3 SE 22 26 1017.6 - - - - - - - - -
31/10:30am 23.3 SE 22 27 1017.8 - - - - - - - - -
31/10:00am 23.4 SE 23 29 1018.1 - - - - - - - - -
31/09:30am 23.1 SE 23 27 1018.4 - - - - - - - - -
31/09:00am 23.4 SE 23 28 1018.6 - - - - - - - - -
31/08:30am 23.5 SE 23 28 1018.7 - - - - - - - - -
31/08:00am 23.1 SE 24 28 1018.1 - - - - - - - - -
31/07:30am 23.4 SE 24 28 1017.8 - - - - - - - - -
31/07:00am 22.9 SE 23 27 1017.7 - - - - - - - - -
31/06:30am 21.6 ESE 24 29 1017.5 - - - - - - - - -
31/06:00am 21.8 SSE 21 25 1017.1 - - - - - - - - -
31/05:30am 22.0 SE 24 28 1016.6 - - - - - - - - -
31/05:00am 21.9 ESE 24 28 1016.4 - - - - - - - - -
31/04:30am 22.8 SE 18 25 1016.4 - - - - - - - - -
31/04:00am 20.8 SE 21 28 1016.7 - - - - - - - - -
31/03:30am 21.8 SE 16 19 1016.9 - - - - - - - - -
31/03:00am 21.2 SE 15 18 1017.2 - - - - - - - - -
31/02:30am 21.7 SE 21 28 1017.1 - - - - - - - - -
31/02:00am 21.7 SE 14 18 1017.5 - - - - - - - - -
31/01:30am 20.8 ESE 20 24 1017.7 - - - - - - - - -
31/01:00am 20.5 ESE 18 21 1018.2 - - - - - - - - -
31/12:49am 21.1 SE 22 27 1018.0 - - - - - - - - -
31/12:30am 22.3 SSE 20 24 1018.0 - - - - - - - - -
31/12:00am 22.4 SE 22 27 1018.0 - - - - - - - - -
 
Date/Time
EST
Temp

°C
Wind Pressure Rain
since 9am
mm
Weather Cloud Vis
km
Sea
Height
m
Swell
Dir
 
Speed
knots
Gust
knots
hPa Trend Height
m
Period
s
Dir
30/11:30pm 23.2 SE 21 30 1018.1 - - - - - - - - -
30/11:00pm 23.0 SE 21 27 1018.0 - - - - - - - - -
30/10:30pm 23.1 SE 23 29 1017.9 - - - - - - - - -
30/10:00pm 22.4 SE 23 28 1018.2 - - - - - - - - -
30/09:30pm 23.5 SE 21 26 1018.1 - - - - - - - - -
30/09:00pm 23.6 SE 21 24 1018.3 - - - - - - - - -
30/08:30pm 23.5 SE 21 25 1017.9 - - - - - - - - -
30/08:00pm 23.5 SE 22 26 1017.9 - - - - - - - - -
30/07:30pm 23.2 SE 20 24 1017.6 - - - - - - - - -
30/07:00pm 23.5 SE 22 26 1017.3 - - - - - - - - -
30/06:30pm 23.3 SE 20 24 1017.1 - - - - - - - - -
30/06:00pm 23.1 SE 20 24 1016.8 - - - - - - - - -
30/05:30pm 23.1 SE 22 27 1016.5 - - - - - - - - -
30/05:00pm 22.9 SSE 20 27 1016.3 - - - - - - - - -

Other Formats:

Comma delimited format used in spreadsheet applications
http://www.bom.gov.au/fwo/IDQ60701/IDQ60701.94293.axf

JavaScript Object Notation format (JSON) in row-major order
http://www.bom.gov.au/fwo/IDQ60701/IDQ60701.94293.json